createdAt,value
2019-02-27T00:00:04.544Z,5.41
2019-02-27T00:01:03.395Z,5.36
2019-02-27T00:02:03.392Z,5.41
2019-02-27T00:03:03.339Z,5.32
2019-02-27T00:04:03.329Z,5.32
2019-02-27T00:05:05.896Z,5.43
2019-02-27T00:06:03.326Z,5.33
2019-02-27T00:07:03.316Z,5.33
2019-02-27T00:08:03.284Z,5.30
2019-02-27T00:09:03.275Z,5.25
2019-02-27T00:10:05.903Z,5.20
2019-02-27T00:11:03.269Z,5.12
2019-02-27T00:12:03.262Z,5.15
2019-02-27T00:13:03.228Z,5.17
2019-02-27T00:14:03.215Z,5.17
2019-02-27T00:15:05.097Z,5.05
2019-02-27T00:16:03.194Z,5.04
2019-02-27T00:17:03.192Z,4.93
2019-02-27T00:18:03.174Z,4.87
2019-02-27T00:19:03.175Z,4.77
2019-02-27T00:20:05.061Z,4.73
2019-02-27T00:21:03.214Z,4.68
2019-02-27T00:22:03.141Z,4.60
2019-02-27T00:23:03.112Z,4.68
2019-02-27T00:24:03.101Z,4.70
2019-02-27T00:25:04.034Z,4.66
2019-02-27T00:26:03.107Z,4.78
2019-02-27T00:27:03.062Z,4.75
2019-02-27T00:28:03.056Z,4.68
2019-02-27T00:29:03.062Z,4.66
2019-02-27T00:30:05.610Z,4.70
2019-02-27T00:31:03.057Z,4.62
2019-02-27T00:32:03.052Z,4.73
2019-02-27T00:33:03.007Z,4.73
2019-02-27T00:34:03.019Z,4.75
2019-02-27T00:35:06.504Z,4.73
2019-02-27T00:36:02.969Z,4.73
2019-02-27T00:37:02.965Z,4.73
2019-02-27T00:38:02.979Z,4.71
2019-02-27T00:39:02.974Z,4.73
2019-02-27T00:40:05.299Z,4.84
2019-02-27T00:41:02.918Z,4.78
2019-02-27T00:42:02.905Z,4.70
2019-02-27T00:43:02.944Z,4.78
2019-02-27T00:44:02.889Z,4.77
2019-02-27T00:45:06.800Z,4.71
2019-02-27T00:46:02.867Z,4.75
2019-02-27T00:47:02.845Z,4.73
2019-02-27T00:48:02.871Z,4.63
2019-02-27T00:49:02.851Z,4.70
2019-02-27T00:50:05.621Z,4.66
2019-02-27T00:51:02.798Z,4.63
2019-02-27T00:52:02.810Z,4.56
2019-02-27T00:53:02.808Z,4.70
2019-02-27T00:54:02.767Z,4.62
2019-02-27T00:55:04.760Z,4.56
2019-02-27T00:56:02.748Z,4.56
2019-02-27T00:57:02.738Z,4.53
2019-02-27T00:58:02.725Z,4.50
2019-02-27T00:59:02.738Z,4.48
2019-02-27T01:00:06.241Z,4.42
2019-02-27T01:01:02.715Z,4.49
2019-02-27T01:02:02.686Z,4.48
2019-02-27T01:03:02.674Z,4.32
2019-02-27T01:04:02.729Z,4.32
2019-02-27T01:05:02.677Z,4.41
2019-02-27T01:06:02.641Z,4.34
2019-02-27T01:07:02.624Z,4.34
2019-02-27T01:08:02.616Z,4.28
2019-02-27T01:09:03.950Z,4.20
2019-02-27T01:10:02.625Z,4.19
2019-02-27T01:11:02.576Z,4.23
2019-02-27T01:12:02.567Z,4.16
2019-02-27T01:13:02.561Z,4.22
2019-02-27T01:14:04.057Z,4.16
2019-02-27T01:15:02.538Z,4.23
2019-02-27T01:16:02.542Z,4.13
2019-02-27T01:17:02.640Z,4.16
2019-02-27T01:18:02.504Z,4.05
2019-02-27T01:19:04.745Z,4.04
2019-02-27T01:20:02.588Z,4.05
2019-02-27T01:21:02.475Z,4.10
2019-02-27T01:22:02.477Z,4.08
2019-02-27T01:23:02.456Z,4.10
2019-02-27T01:24:02.438Z,4.05
2019-02-27T01:25:02.571Z,4.02
2019-02-27T01:26:02.436Z,4.04
2019-02-27T01:27:04.522Z,4.04
2019-02-27T01:28:02.430Z,4.01
2019-02-27T01:29:02.415Z,3.91
2019-02-27T01:30:02.372Z,3.95
2019-02-27T01:31:02.425Z,3.92
2019-02-27T01:32:02.352Z,3.87
2019-02-27T01:33:04.163Z,3.91
2019-02-27T01:34:02.330Z,3.87
2019-02-27T01:35:02.317Z,3.83
2019-02-27T01:36:02.310Z,3.78
2019-02-27T01:37:02.295Z,3.76
2019-02-27T01:38:05.082Z,3.78
2019-02-27T01:39:02.309Z,3.76
2019-02-27T01:40:02.265Z,3.84
2019-02-27T01:41:02.253Z,3.83
2019-02-27T01:42:02.240Z,3.80
2019-02-27T01:43:05.540Z,3.69
2019-02-27T01:44:02.314Z,3.81
2019-02-27T01:45:02.238Z,3.74
2019-02-27T01:46:02.196Z,3.78
2019-02-27T01:47:02.989Z,3.74
2019-02-27T01:48:02.176Z,3.76
2019-02-27T01:49:02.173Z,3.69
2019-02-27T01:50:02.182Z,3.68
2019-02-27T01:51:02.136Z,3.60
2019-02-27T01:52:02.246Z,3.74
2019-02-27T01:53:02.116Z,3.56
2019-02-27T01:54:02.116Z,3.58
2019-02-27T01:55:02.116Z,3.60
2019-02-27T01:56:02.102Z,3.62
2019-02-27T01:57:02.923Z,3.66
2019-02-27T01:58:02.061Z,3.58
2019-02-27T01:59:02.050Z,3.53
2019-02-27T02:00:02.197Z,3.55
2019-02-27T02:01:02.045Z,3.50
2019-02-27T02:02:03.472Z,3.48
2019-02-27T02:03:02.008Z,3.53
2019-02-27T02:04:01.996Z,3.51
2019-02-27T02:05:01.980Z,3.56
2019-02-27T02:06:01.992Z,3.50
2019-02-27T02:07:03.989Z,3.60
2019-02-27T02:08:01.977Z,3.53
2019-02-27T02:09:01.938Z,3.62
2019-02-27T02:10:01.931Z,3.60
2019-02-27T02:11:02.159Z,3.59
2019-02-27T02:12:01.917Z,3.55
2019-02-27T02:13:01.903Z,3.62
2019-02-27T02:14:01.920Z,3.58
2019-02-27T02:15:01.896Z,3.45
2019-02-27T02:16:01.860Z,3.50
2019-02-27T02:17:01.859Z,3.45
2019-02-27T02:18:01.867Z,3.34
2019-02-27T02:19:01.834Z,3.32
2019-02-27T02:20:01.822Z,3.51
2019-02-27T02:21:01.928Z,3.44
2019-02-27T02:22:01.797Z,3.37
2019-02-27T02:23:01.780Z,3.41
2019-02-27T02:24:01.907Z,3.32
2019-02-27T02:25:01.787Z,3.32
2019-02-27T02:26:01.883Z,3.36
2019-02-27T02:27:01.787Z,3.48
2019-02-27T02:28:01.726Z,3.48
2019-02-27T02:29:01.748Z,3.48
2019-02-27T02:30:01.779Z,3.47
2019-02-27T02:31:05.221Z,3.41
2019-02-27T02:32:01.693Z,3.36
2019-02-27T02:33:01.689Z,3.50
2019-02-27T02:34:05.147Z,3.42
2019-02-27T02:35:01.686Z,3.51
2019-02-27T02:36:01.667Z,3.45
2019-02-27T02:37:02.694Z,3.53
2019-02-27T02:38:01.619Z,3.48
2019-02-27T02:39:01.609Z,3.50
2019-02-27T02:40:01.650Z,3.32
2019-02-27T02:41:01.619Z,3.37
2019-02-27T02:42:01.571Z,3.32
2019-02-27T02:43:03.168Z,3.45
2019-02-27T02:44:01.550Z,3.50
2019-02-27T02:45:01.540Z,3.37
2019-02-27T02:46:08.028Z,3.29
2019-02-27T02:47:02.515Z,3.44
2019-02-27T02:48:01.557Z,3.32
2019-02-27T02:49:06.255Z,3.42
2019-02-27T02:50:02.490Z,3.34
2019-02-27T02:51:01.493Z,3.36
2019-02-27T02:52:04.354Z,3.34
2019-02-27T02:53:01.466Z,3.32
2019-02-27T02:54:02.217Z,3.48
2019-02-27T02:55:01.430Z,3.40
2019-02-27T02:56:01.515Z,3.44
2019-02-27T02:57:04.638Z,3.34
2019-02-27T02:58:01.605Z,3.47
2019-02-27T02:59:01.384Z,3.42
2019-02-27T03:00:01.895Z,3.37
2019-02-27T03:01:01.417Z,3.36
2019-02-27T03:02:01.361Z,3.41
2019-02-27T03:03:01.926Z,3.28
2019-02-27T03:04:01.399Z,3.28
2019-02-27T03:05:01.316Z,3.31
2019-02-27T03:06:01.319Z,3.29
2019-02-27T03:07:01.302Z,3.25
2019-02-27T03:08:01.292Z,3.34
2019-02-27T03:09:01.308Z,3.25
2019-02-27T03:10:07.127Z,3.16
2019-02-27T03:11:02.289Z,3.25
2019-02-27T03:12:01.243Z,3.25
2019-02-27T03:13:05.776Z,3.28
2019-02-27T03:14:02.222Z,3.25
2019-02-27T03:15:01.207Z,3.13
2019-02-27T03:16:04.840Z,3.19
2019-02-27T03:17:01.193Z,3.14
2019-02-27T03:18:01.184Z,3.13
2019-02-27T03:19:04.841Z,3.13
2019-02-27T03:20:01.259Z,3.08
2019-02-27T03:21:01.142Z,3.11
2019-02-27T03:22:03.559Z,3.16
2019-02-27T03:23:01.219Z,3.11
2019-02-27T03:24:01.109Z,3.03
2019-02-27T03:25:04.471Z,3.18
2019-02-27T03:26:01.123Z,3.03
2019-02-27T03:27:01.085Z,3.13
2019-02-27T03:28:04.400Z,3.13
2019-02-27T03:29:01.073Z,3.10
2019-02-27T03:30:01.054Z,3.14
2019-02-27T03:31:01.054Z,3.11
2019-02-27T03:32:01.539Z,3.08
2019-02-27T03:33:01.038Z,3.10
2019-02-27T03:34:07.951Z,3.07
2019-02-27T03:35:02.015Z,3.10
2019-02-27T03:36:03.405Z,3.01
2019-02-27T03:37:00.971Z,3.00
2019-02-27T03:38:00.960Z,2.98
2019-02-27T03:39:01.011Z,3.01
2019-02-27T03:40:00.938Z,3.01
2019-02-27T03:41:00.927Z,2.98
2019-02-27T03:42:00.917Z,2.85
2019-02-27T03:43:00.917Z,2.83
2019-02-27T03:44:01.708Z,2.86
2019-02-27T03:45:00.879Z,2.74
2019-02-27T03:46:02.981Z,2.74
2019-02-27T03:47:01.868Z,2.61
2019-02-27T03:48:00.849Z,2.72
2019-02-27T03:49:03.735Z,2.64
2019-02-27T03:50:00.854Z,2.62
2019-02-27T03:51:00.820Z,2.56
2019-02-27T03:52:01.435Z,2.60
2019-02-27T03:53:00.793Z,2.65
2019-02-27T03:54:00.792Z,2.65
2019-02-27T03:55:00.777Z,2.74
2019-02-27T03:56:00.764Z,2.64
2019-02-27T03:57:00.769Z,2.67
2019-02-27T03:58:00.742Z,2.75
2019-02-27T03:59:05.572Z,2.74
2019-02-27T04:00:01.721Z,2.85
2019-02-27T04:01:00.718Z,2.79
2019-02-27T04:02:05.882Z,2.83
2019-02-27T04:03:01.720Z,2.82
2019-02-27T04:04:00.711Z,2.80
2019-02-27T04:05:05.171Z,2.80
2019-02-27T04:06:01.659Z,2.72
2019-02-27T04:07:00.648Z,2.71
2019-02-27T04:08:07.241Z,2.67
2019-02-27T04:09:01.688Z,2.69
2019-02-27T04:10:00.634Z,2.72
2019-02-27T04:11:05.537Z,2.60
2019-02-27T04:12:01.596Z,2.64
2019-02-27T04:13:00.617Z,2.68
2019-02-27T04:14:04.920Z,2.67
2019-02-27T04:15:00.594Z,2.56
2019-02-27T04:16:00.540Z,2.68
2019-02-27T04:17:05.378Z,2.61
2019-02-27T04:18:01.528Z,2.69
2019-02-27T04:19:04.489Z,2.68
2019-02-27T04:20:00.605Z,2.77
2019-02-27T04:21:00.482Z,2.67
2019-02-27T04:22:01.134Z,2.69
2019-02-27T04:23:00.462Z,2.71
2019-02-27T04:24:00.454Z,2.68
2019-02-27T04:25:00.454Z,2.64
2019-02-27T04:26:05.418Z,2.67
2019-02-27T04:27:01.606Z,2.61
2019-02-27T04:28:00.410Z,2.67
2019-02-27T04:29:03.977Z,2.67
2019-02-27T04:30:00.412Z,2.57
2019-02-27T04:31:00.368Z,2.57
2019-02-27T04:32:00.389Z,2.57
2019-02-27T04:33:00.356Z,2.62
2019-02-27T04:34:01.272Z,2.50
2019-02-27T04:35:00.326Z,2.46
2019-02-27T04:36:00.315Z,2.56
2019-02-27T04:37:00.335Z,2.53
2019-02-27T04:38:00.298Z,2.53
2019-02-27T04:39:02.538Z,2.47
2019-02-27T04:40:00.397Z,2.43
2019-02-27T04:41:00.262Z,2.43
2019-02-27T04:42:00.249Z,2.43
2019-02-27T04:43:00.356Z,2.43
2019-02-27T04:44:00.237Z,2.46
2019-02-27T04:45:00.286Z,2.51
2019-02-27T04:46:00.226Z,2.44
2019-02-27T04:47:00.273Z,2.39
2019-02-27T04:48:00.182Z,2.35
2019-02-27T04:49:04.060Z,2.33
2019-02-27T04:50:00.221Z,2.29
2019-02-27T04:51:00.162Z,2.26
2019-02-27T04:52:00.149Z,2.32
2019-02-27T04:53:00.154Z,2.26
2019-02-27T04:54:00.138Z,2.32
2019-02-27T04:55:00.297Z,2.31
2019-02-27T04:56:00.106Z,2.36
2019-02-27T04:57:00.094Z,2.35
2019-02-27T04:58:00.095Z,2.38
2019-02-27T04:59:00.149Z,2.36
2019-02-27T05:00:00.155Z,2.35
2019-02-27T05:01:00.049Z,2.46
2019-02-27T05:02:00.059Z,2.51
2019-02-27T05:03:00.051Z,2.47
2019-02-27T05:04:01.568Z,2.36
2019-02-27T05:05:00.024Z,2.39
2019-02-27T05:05:59.999Z,2.35
2019-02-27T05:06:59.987Z,2.38
2019-02-27T05:07:59.966Z,2.35
2019-02-27T05:09:00.742Z,2.33
2019-02-27T05:09:59.944Z,2.43
2019-02-27T05:10:59.958Z,2.38
2019-02-27T05:11:59.930Z,2.36
2019-02-27T05:12:59.915Z,2.38
2019-02-27T05:13:59.896Z,2.38
2019-02-27T05:15:00.932Z,2.42
2019-02-27T05:15:59.875Z,2.44
2019-02-27T05:16:59.878Z,2.44
2019-02-27T05:17:59.935Z,2.35
2019-02-27T05:19:03.603Z,2.39
2019-02-27T05:19:59.841Z,2.35
2019-02-27T05:20:59.874Z,2.31
2019-02-27T05:22:01.289Z,2.26
2019-02-27T05:23:00.374Z,2.24
2019-02-27T05:23:59.799Z,2.31
2019-02-27T05:24:59.786Z,2.25
2019-02-27T05:25:59.818Z,2.18
2019-02-27T05:27:00.738Z,2.32
2019-02-27T05:28:01.520Z,2.36
2019-02-27T05:28:59.745Z,2.47
2019-02-27T05:30:00.125Z,2.54
2019-02-27T05:30:59.708Z,2.51
2019-02-27T05:31:59.736Z,2.51
2019-02-27T05:33:02.304Z,2.43
2019-02-27T05:33:59.685Z,2.33
2019-02-27T05:34:59.677Z,2.46
2019-02-27T05:35:59.681Z,2.39
2019-02-27T05:36:59.647Z,2.39
2019-02-27T05:37:59.706Z,2.24
2019-02-27T05:38:59.709Z,2.29
2019-02-27T05:39:59.616Z,2.20
2019-02-27T05:41:00.104Z,2.22
2019-02-27T05:42:00.910Z,2.18
2019-02-27T05:42:59.598Z,2.11
2019-02-27T05:43:59.595Z,2.11
2019-02-27T05:44:59.562Z,2.08
2019-02-27T05:46:02.772Z,1.94
2019-02-27T05:46:59.533Z,2.00
2019-02-27T05:47:59.522Z,2.02
2019-02-27T05:48:59.531Z,2.04
2019-02-27T05:50:00.484Z,2.04
2019-02-27T05:50:59.511Z,1.91
2019-02-27T05:51:59.481Z,1.91
2019-02-27T05:52:59.465Z,2.00
2019-02-27T05:53:59.474Z,1.88
2019-02-27T05:54:59.483Z,1.91
2019-02-27T05:55:59.473Z,1.89
2019-02-27T05:56:59.433Z,1.95
2019-02-27T05:57:59.445Z,1.88
2019-02-27T05:58:59.418Z,1.91
2019-02-27T06:00:02.290Z,1.92
2019-02-27T06:01:02.051Z,1.95
2019-02-27T06:02:00.368Z,2.04
2019-02-27T06:02:59.386Z,2.06
2019-02-27T06:03:59.350Z,2.17
2019-02-27T06:04:59.752Z,2.14
2019-02-27T06:05:59.356Z,2.06
2019-02-27T06:06:59.332Z,2.17
2019-02-27T06:08:02.096Z,2.18
2019-02-27T06:08:59.304Z,2.14
2019-02-27T06:09:59.399Z,2.18
2019-02-27T06:10:59.269Z,2.11
2019-02-27T06:11:59.271Z,2.11
2019-02-27T06:12:59.248Z,2.10
2019-02-27T06:13:59.240Z,1.92
2019-02-27T06:14:59.227Z,1.99
2019-02-27T06:16:02.735Z,2.02
2019-02-27T06:16:59.216Z,2.02
2019-02-27T06:17:59.217Z,1.95
2019-02-27T06:18:59.220Z,2.10
2019-02-27T06:19:59.169Z,2.14
2019-02-27T06:20:59.160Z,2.24
2019-02-27T06:21:59.215Z,2.32
2019-02-27T06:22:59.142Z,2.18
2019-02-27T06:23:59.157Z,2.26
2019-02-27T06:24:59.118Z,2.24
2019-02-27T06:26:00.151Z,2.20
2019-02-27T06:26:59.103Z,2.10
2019-02-27T06:27:59.101Z,2.08
2019-02-27T06:28:59.075Z,2.13
2019-02-27T06:29:59.794Z,2.10
2019-02-27T06:30:59.052Z,2.13
2019-02-27T06:31:59.053Z,2.00
2019-02-27T06:32:59.048Z,1.97
2019-02-27T06:33:59.126Z,2.00
2019-02-27T06:34:59.442Z,1.94
2019-02-27T06:35:58.992Z,1.99
2019-02-27T06:36:58.986Z,1.84
2019-02-27T06:37:59.723Z,1.88
2019-02-27T06:39:00.426Z,1.89
2019-02-27T06:39:58.958Z,1.87
2019-02-27T06:40:59.456Z,1.89
2019-02-27T06:41:58.944Z,1.88
2019-02-27T06:42:58.947Z,1.80
2019-02-27T06:44:01.383Z,1.85
2019-02-27T06:44:58.927Z,1.89
2019-02-27T06:45:58.897Z,1.88
2019-02-27T06:46:58.876Z,1.88
2019-02-27T06:47:58.867Z,1.91
2019-02-27T06:48:58.854Z,1.88
2019-02-27T06:49:58.859Z,1.94
2019-02-27T06:51:00.917Z,1.84
2019-02-27T06:51:58.823Z,1.78
2019-02-27T06:52:58.808Z,1.87
2019-02-27T06:53:58.794Z,1.87
2019-02-27T06:54:58.793Z,1.80
2019-02-27T06:56:02.987Z,1.81
2019-02-27T06:56:58.791Z,1.88
2019-02-27T06:57:58.755Z,1.80
2019-02-27T06:58:58.846Z,1.88
2019-02-27T07:00:02.191Z,1.84
2019-02-27T07:00:58.725Z,1.89
2019-02-27T07:01:58.759Z,1.92
2019-02-27T07:02:58.789Z,1.85
2019-02-27T07:03:58.712Z,1.92
2019-02-27T07:04:58.687Z,2.00
2019-02-27T07:05:58.668Z,1.97
2019-02-27T07:07:00.555Z,2.06
2019-02-27T07:07:58.656Z,2.00
2019-02-27T07:08:58.676Z,2.13
2019-02-27T07:09:58.641Z,2.07
2019-02-27T07:11:09.924Z,2.15
2019-02-27T07:11:59.599Z,2.14
2019-02-27T07:12:58.601Z,2.13
2019-02-27T07:13:58.579Z,2.14
2019-02-27T07:14:59.226Z,2.18
2019-02-27T07:15:58.578Z,2.25
2019-02-27T07:16:58.547Z,2.25
2019-02-27T07:17:58.604Z,2.26
2019-02-27T07:18:58.530Z,2.20
2019-02-27T07:19:58.611Z,2.26
2019-02-27T07:20:59.285Z,2.31
2019-02-27T07:21:58.495Z,2.36
2019-02-27T07:22:58.485Z,2.35
2019-02-27T07:23:58.698Z,2.31
2019-02-27T07:24:58.487Z,2.43
2019-02-27T07:25:58.447Z,2.42
2019-02-27T07:26:58.434Z,2.50
2019-02-27T07:27:58.426Z,2.53
2019-02-27T07:28:58.413Z,2.51
2019-02-27T07:29:58.422Z,2.53
2019-02-27T07:30:58.528Z,2.49
2019-02-27T07:31:58.382Z,2.61
2019-02-27T07:32:58.386Z,2.60
2019-02-27T07:33:58.480Z,2.61
2019-02-27T07:34:58.373Z,2.62
2019-02-27T07:36:03.446Z,2.65
2019-02-27T07:36:59.322Z,2.56
2019-02-27T07:37:58.317Z,2.77
2019-02-27T07:38:58.370Z,2.80
2019-02-27T07:39:58.298Z,2.75
2019-02-27T07:40:58.319Z,2.85
2019-02-27T07:41:58.272Z,2.89
2019-02-27T07:42:58.256Z,2.90
2019-02-27T07:43:58.275Z,3.00
2019-02-27T07:44:58.249Z,2.95
2019-02-27T07:45:58.225Z,3.10
2019-02-27T07:46:58.230Z,3.16
2019-02-27T07:47:58.214Z,3.25
2019-02-27T07:48:58.191Z,3.29
2019-02-27T07:49:58.200Z,3.21
2019-02-27T07:50:58.172Z,3.41
2019-02-27T07:51:58.164Z,3.31
2019-02-27T07:52:58.162Z,3.31
2019-02-27T07:53:58.179Z,3.34
2019-02-27T07:54:58.129Z,3.51
2019-02-27T07:55:58.127Z,3.53
2019-02-27T07:56:58.102Z,3.65
2019-02-27T07:57:58.771Z,3.65
2019-02-27T07:58:58.083Z,3.83
2019-02-27T07:59:58.100Z,3.98
2019-02-27T08:00:58.178Z,4.08
2019-02-27T08:02:02.314Z,4.23
2019-02-27T08:02:58.041Z,4.35
2019-02-27T08:03:58.040Z,4.44
2019-02-27T08:04:58.055Z,4.52
2019-02-27T08:05:59.790Z,4.55
2019-02-27T08:06:57.992Z,4.70
2019-02-27T08:07:57.993Z,4.74
2019-02-27T08:08:57.981Z,4.86
2019-02-27T08:09:57.992Z,5.02
2019-02-27T08:10:57.950Z,5.07
2019-02-27T08:11:57.963Z,5.12
2019-02-27T08:12:57.936Z,5.29
2019-02-27T08:13:57.925Z,5.41
2019-02-27T08:14:57.916Z,5.43
2019-02-27T08:15:58.133Z,5.54
2019-02-27T08:16:58.157Z,5.71
2019-02-27T08:17:58.731Z,5.80
2019-02-27T08:18:57.860Z,5.93
2019-02-27T08:19:57.869Z,5.98
2019-02-27T08:20:57.845Z,6.09
2019-02-27T08:21:57.849Z,6.26
2019-02-27T08:22:58.039Z,6.30
2019-02-27T08:23:57.811Z,6.46
2019-02-27T08:24:57.801Z,6.52
2019-02-27T08:25:57.818Z,6.62
2019-02-27T08:26:57.774Z,6.67
2019-02-27T08:27:57.916Z,6.88
2019-02-27T08:28:57.756Z,7.05
2019-02-27T08:29:59.763Z,7.11
2019-02-27T08:30:57.729Z,7.17
2019-02-27T08:32:00.869Z,7.40
2019-02-27T08:32:57.715Z,7.58
2019-02-27T08:33:57.702Z,7.56
2019-02-27T08:34:57.690Z,7.77
2019-02-27T08:35:57.703Z,7.77
2019-02-27T08:36:57.663Z,7.93
2019-02-27T08:38:02.624Z,8.03
2019-02-27T08:38:58.663Z,8.09
2019-02-27T08:39:57.648Z,8.26
2019-02-27T08:40:58.439Z,8.28
2019-02-27T08:41:57.620Z,8.41
2019-02-27T08:42:57.595Z,8.48
2019-02-27T08:43:57.668Z,8.58
2019-02-27T08:44:57.604Z,8.69
2019-02-27T08:46:02.106Z,8.76
2019-02-27T08:46:57.579Z,8.89
2019-02-27T08:47:57.549Z,8.85
2019-02-27T08:48:57.562Z,8.97
2019-02-27T08:49:58.007Z,9.14
2019-02-27T08:50:57.515Z,9.14
2019-02-27T08:51:57.507Z,9.26
2019-02-27T08:52:57.998Z,9.44
2019-02-27T08:53:59.286Z,9.43
2019-02-27T08:54:57.481Z,9.48
2019-02-27T08:55:57.447Z,9.66
2019-02-27T08:56:57.487Z,9.72
2019-02-27T08:57:57.449Z,9.84
2019-02-27T08:58:57.422Z,9.94
2019-02-27T08:59:57.412Z,9.99
2019-02-27T09:00:57.455Z,10.04
2019-02-27T09:01:57.386Z,10.10
2019-02-27T09:03:02.551Z,10.25
2019-02-27T09:03:58.354Z,10.31
2019-02-27T09:04:57.376Z,10.38
2019-02-27T09:05:57.337Z,10.46
2019-02-27T09:07:02.142Z,10.44
2019-02-27T09:07:58.316Z,10.59
2019-02-27T09:08:57.305Z,10.64
2019-02-27T09:09:57.301Z,10.68
2019-02-27T09:10:57.459Z,10.79
2019-02-27T09:11:57.278Z,10.89
2019-02-27T09:13:04.956Z,11.02
2019-02-27T09:13:58.242Z,10.93
2019-02-27T09:14:57.249Z,11.12
2019-02-27T09:15:57.257Z,11.18
2019-02-27T09:16:57.245Z,11.23
2019-02-27T09:17:59.257Z,11.26
2019-02-27T09:18:57.196Z,11.35
2019-02-27T09:19:57.206Z,11.44
2019-02-27T09:20:57.179Z,11.50
2019-02-27T09:21:57.158Z,11.52
2019-02-27T09:22:57.208Z,11.52
2019-02-27T09:23:57.201Z,11.66
2019-02-27T09:24:57.249Z,11.70
2019-02-27T09:25:57.627Z,11.70
2019-02-27T09:26:57.106Z,11.81
2019-02-27T09:27:57.093Z,11.90
2019-02-27T09:28:57.099Z,11.80
2019-02-27T09:29:57.073Z,11.99
2019-02-27T09:30:57.060Z,11.94
2019-02-27T09:31:57.066Z,12.09
2019-02-27T09:32:57.095Z,12.04
2019-02-27T09:33:57.053Z,12.07
2019-02-27T09:34:59.403Z,12.20
2019-02-27T09:35:57.011Z,12.22
2019-02-27T09:36:57.005Z,12.20
2019-02-27T09:37:56.980Z,12.25
2019-02-27T09:38:57.595Z,12.28
2019-02-27T09:39:56.972Z,12.31
2019-02-27T09:40:56.976Z,12.29
2019-02-27T09:41:56.933Z,12.31
2019-02-27T09:42:56.924Z,12.36
2019-02-27T09:43:58.606Z,12.39
2019-02-27T09:44:56.912Z,12.47
2019-02-27T09:45:56.885Z,12.46
2019-02-27T09:46:56.907Z,12.43
2019-02-27T09:47:59.342Z,12.55
2019-02-27T09:48:56.857Z,12.57
2019-02-27T09:49:56.843Z,12.60
2019-02-27T09:50:57.031Z,12.57
2019-02-27T09:51:56.997Z,12.65
2019-02-27T09:52:56.861Z,12.65
2019-02-27T09:53:56.800Z,12.70
2019-02-27T09:54:56.793Z,12.75
2019-02-27T09:55:56.774Z,12.90
2019-02-27T09:56:56.764Z,12.90
2019-02-27T09:57:56.751Z,12.93
2019-02-27T09:58:56.762Z,12.94
2019-02-27T09:59:56.771Z,13.04
2019-02-27T10:00:59.340Z,13.00
2019-02-27T10:01:57.326Z,12.98
2019-02-27T10:02:58.270Z,13.09
2019-02-27T10:03:56.683Z,13.15
2019-02-27T10:05:01.623Z,13.05
2019-02-27T10:05:57.668Z,13.05
2019-02-27T10:06:56.653Z,13.18
2019-02-27T10:07:57.505Z,13.00
2019-02-27T10:08:59.045Z,13.09
2019-02-27T10:09:56.619Z,13.16
2019-02-27T10:10:56.612Z,13.16
2019-02-27T10:11:56.603Z,13.12
2019-02-27T10:12:57.261Z,13.18
2019-02-27T10:13:56.610Z,13.27
2019-02-27T10:14:56.574Z,13.25
2019-02-27T10:16:00.219Z,13.30
2019-02-27T10:16:56.553Z,13.31
2019-02-27T10:17:56.536Z,13.41
2019-02-27T10:18:56.577Z,13.50
2019-02-27T10:20:01.415Z,13.47
2019-02-27T10:20:57.495Z,13.41
2019-02-27T10:21:56.489Z,13.59
2019-02-27T10:22:56.492Z,13.57
2019-02-27T10:23:56.499Z,13.53
2019-02-27T10:24:56.449Z,13.54
2019-02-27T10:25:56.440Z,13.60
2019-02-27T10:26:56.463Z,13.60
2019-02-27T10:27:56.419Z,13.70
2019-02-27T10:28:56.405Z,13.67
2019-02-27T10:29:56.451Z,13.72
2019-02-27T10:30:56.421Z,13.75
2019-02-27T10:31:58.262Z,13.68
2019-02-27T10:32:56.377Z,13.74
2019-02-27T10:33:56.352Z,13.77
2019-02-27T10:34:58.312Z,13.92
2019-02-27T10:35:56.344Z,13.96
2019-02-27T10:36:56.376Z,14.07
2019-02-27T10:37:56.401Z,14.11
2019-02-27T10:38:56.293Z,14.15
2019-02-27T10:39:56.382Z,14.14
2019-02-27T10:40:56.276Z,14.17
2019-02-27T10:41:56.264Z,14.25
2019-02-27T10:42:56.277Z,14.25
2019-02-27T10:43:57.156Z,14.29
2019-02-27T10:44:56.232Z,14.33
2019-02-27T10:45:56.233Z,14.28
2019-02-27T10:46:57.261Z,14.41
2019-02-27T10:47:56.221Z,14.44
2019-02-27T10:48:56.223Z,14.35
2019-02-27T10:49:56.170Z,14.45
2019-02-27T10:50:56.157Z,14.40
2019-02-27T10:51:56.149Z,14.43
2019-02-27T10:52:56.142Z,14.50
2019-02-27T10:53:56.130Z,14.51
2019-02-27T10:54:56.165Z,14.53
2019-02-27T10:55:56.201Z,14.63
2019-02-27T10:56:56.552Z,14.65
2019-02-27T10:57:56.769Z,14.69
2019-02-27T10:58:56.775Z,14.78
2019-02-27T10:59:56.054Z,14.79
2019-02-27T11:00:58.065Z,14.85
2019-02-27T11:01:56.040Z,14.84
2019-02-27T11:02:56.029Z,14.84
2019-02-27T11:03:56.038Z,14.86
2019-02-27T11:04:56.004Z,14.96
2019-02-27T11:05:55.989Z,14.96
2019-02-27T11:06:55.978Z,14.97
2019-02-27T11:07:55.972Z,14.96
2019-02-27T11:08:56.005Z,15.03
2019-02-27T11:09:55.993Z,15.04
2019-02-27T11:10:55.946Z,15.10
2019-02-27T11:11:55.935Z,15.17
2019-02-27T11:12:55.912Z,15.21
2019-02-27T11:13:55.900Z,15.22
2019-02-27T11:14:55.924Z,15.29
2019-02-27T11:15:55.892Z,15.24
2019-02-27T11:16:55.872Z,15.31
2019-02-27T11:17:55.871Z,15.28
2019-02-27T11:18:55.847Z,15.39
2019-02-27T11:19:55.839Z,15.42
2019-02-27T11:20:59.038Z,15.54
2019-02-27T11:21:58.311Z,15.46
2019-02-27T11:22:55.800Z,15.54
2019-02-27T11:23:55.802Z,15.58
2019-02-27T11:24:55.811Z,15.62
2019-02-27T11:25:56.920Z,15.64
2019-02-27T11:26:56.994Z,15.62
2019-02-27T11:27:55.747Z,15.61
2019-02-27T11:28:57.720Z,15.68
2019-02-27T11:29:59.576Z,15.73
2019-02-27T11:30:56.747Z,15.75
2019-02-27T11:31:55.705Z,15.68
2019-02-27T11:32:57.829Z,15.73
2019-02-27T11:33:55.676Z,15.79
2019-02-27T11:34:55.667Z,15.80
2019-02-27T11:35:55.687Z,15.77
2019-02-27T11:36:55.677Z,15.80
2019-02-27T11:37:55.636Z,15.84
2019-02-27T11:38:56.647Z,15.82
2019-02-27T11:39:55.618Z,15.86
2019-02-27T11:40:55.607Z,15.94
2019-02-27T11:41:55.768Z,15.92
2019-02-27T11:42:55.588Z,16.02
2019-02-27T11:43:55.600Z,16.08
2019-02-27T11:44:55.618Z,16.17
2019-02-27T11:45:58.166Z,16.17
2019-02-27T11:46:58.996Z,16.17
2019-02-27T11:47:55.515Z,16.21
2019-02-27T11:48:57.068Z,16.15
2019-02-27T11:49:55.552Z,16.17
2019-02-27T11:50:55.484Z,16.23
2019-02-27T11:51:56.968Z,16.21
2019-02-27T11:52:55.532Z,16.39
2019-02-27T11:53:55.445Z,16.47
2019-02-27T11:54:55.457Z,16.42
2019-02-27T11:55:55.468Z,16.50
2019-02-27T11:56:56.927Z,16.50
2019-02-27T11:57:55.402Z,16.56
2019-02-27T11:58:55.396Z,16.58
2019-02-27T11:59:55.398Z,16.51
2019-02-27T12:00:55.376Z,16.50
2019-02-27T12:01:56.145Z,16.56
2019-02-27T12:02:55.344Z,16.56
2019-02-27T12:03:55.334Z,16.64
2019-02-27T12:04:56.685Z,16.66
2019-02-27T12:05:55.398Z,16.72
2019-02-27T12:06:55.345Z,16.72
2019-02-27T12:07:55.294Z,16.72
2019-02-27T12:08:59.558Z,16.71
2019-02-27T12:09:55.274Z,16.69
2019-02-27T12:10:55.286Z,16.81
2019-02-27T12:11:55.246Z,16.75
2019-02-27T12:12:59.681Z,16.79
2019-02-27T12:13:56.315Z,16.71
2019-02-27T12:14:55.214Z,16.69
2019-02-27T12:15:55.235Z,16.86
2019-02-27T12:16:55.192Z,16.79
2019-02-27T12:17:59.957Z,16.78
2019-02-27T12:18:56.176Z,16.87
2019-02-27T12:19:55.158Z,16.94
2019-02-27T12:20:55.144Z,16.96
2019-02-27T12:21:59.539Z,17.06
2019-02-27T12:22:55.150Z,17.22
2019-02-27T12:23:55.116Z,17.26
2019-02-27T12:24:55.103Z,17.57
2019-02-27T12:25:55.098Z,17.90
2019-02-27T12:26:55.101Z,18.08
2019-02-27T12:27:55.096Z,18.43
2019-02-27T12:28:55.083Z,18.35
2019-02-27T12:29:55.047Z,18.41
2019-02-27T12:30:55.047Z,18.43
2019-02-27T12:31:55.026Z,18.45
2019-02-27T12:32:56.703Z,18.50
2019-02-27T12:33:55.003Z,18.55
2019-02-27T12:34:55.037Z,18.56
2019-02-27T12:35:55.011Z,18.75
2019-02-27T12:36:54.963Z,19.19
2019-02-27T12:37:54.951Z,19.67
2019-02-27T12:38:54.972Z,20.10
2019-02-27T12:39:54.938Z,20.60
2019-02-27T12:40:58.306Z,21.00
2019-02-27T12:41:54.917Z,21.32
2019-02-27T12:42:54.908Z,21.64
2019-02-27T12:43:54.888Z,21.98
2019-02-27T12:44:54.914Z,22.28
2019-02-27T12:45:57.692Z,22.55
2019-02-27T12:46:55.859Z,22.83
2019-02-27T12:47:54.852Z,22.93
2019-02-27T12:48:55.803Z,23.10
2019-02-27T12:49:54.973Z,23.23
2019-02-27T12:50:54.812Z,23.41
2019-02-27T12:51:54.817Z,23.51
2019-02-27T12:52:54.791Z,23.54
2019-02-27T12:53:55.219Z,23.56
2019-02-27T12:54:54.764Z,23.47
2019-02-27T12:55:54.751Z,23.34
2019-02-27T12:56:54.742Z,23.23
2019-02-27T12:57:54.736Z,23.02
2019-02-27T12:58:58.322Z,22.81
2019-02-27T12:59:54.706Z,22.59
2019-02-27T13:00:54.696Z,22.30
2019-02-27T13:01:54.691Z,22.14
2019-02-27T13:02:54.679Z,22.02
2019-02-27T13:03:54.663Z,21.75
2019-02-27T13:04:54.812Z,21.55
2019-02-27T13:05:54.652Z,21.67
2019-02-27T13:06:54.649Z,21.73
2019-02-27T13:07:54.658Z,21.79
2019-02-27T13:08:55.919Z,21.91
2019-02-27T13:09:58.439Z,21.92